createdAt,value
2022-12-04T00:01:18.472Z,18.13
2022-12-04T00:03:45.736Z,22.42
2022-12-04T00:06:14.738Z,18.52
2022-12-04T00:08:41.782Z,17.83
2022-12-04T00:11:09.477Z,19.65
2022-12-04T00:13:36.709Z,19.42
2022-12-04T00:16:08.246Z,21.15
2022-12-04T00:18:35.615Z,19.77
2022-12-04T00:21:06.595Z,23.05
2022-12-04T00:23:34.158Z,20.75
2022-12-04T00:26:02.169Z,18.67
2022-12-04T00:28:29.154Z,17.52
2022-12-04T00:30:56.218Z,19.38
2022-12-04T00:33:23.356Z,21.55
2022-12-04T00:36:00.221Z,19.48
2022-12-04T00:38:27.425Z,24.90
2022-12-04T00:40:54.492Z,20.95
2022-12-04T00:43:21.819Z,21.33
2022-12-04T00:45:49.845Z,21.58
2022-12-04T00:48:16.844Z,18.85
2022-12-04T00:50:43.776Z,19.02
2022-12-04T00:53:11.077Z,18.98
2022-12-04T00:55:39.356Z,18.83
2022-12-04T00:58:07.972Z,18.65
2022-12-04T01:00:36.144Z,23.33
2022-12-04T01:03:04.653Z,18.27
2022-12-04T01:05:31.858Z,22.13
2022-12-04T01:07:58.972Z,26.92
2022-12-04T01:10:26.004Z,22.13
2022-12-04T01:12:56.014Z,19.00
2022-12-04T01:15:22.984Z,20.80
2022-12-04T01:17:50.447Z,18.48
2022-12-04T01:20:17.468Z,16.42
2022-12-04T01:22:44.485Z,18.75
2022-12-04T01:25:11.533Z,16.95
2022-12-04T01:27:38.609Z,22.77
2022-12-04T01:30:06.384Z,18.05
2022-12-04T01:32:33.405Z,14.73
2022-12-04T01:35:00.460Z,17.02
2022-12-04T01:37:27.409Z,16.58
2022-12-04T01:39:54.548Z,14.60
2022-12-04T01:42:21.769Z,15.23
2022-12-04T01:45:26.822Z,19.38
2022-12-04T01:47:54.671Z,15.15
2022-12-04T01:50:22.149Z,14.02
2022-12-04T01:52:49.238Z,12.90
2022-12-04T01:55:16.357Z,16.88
2022-12-04T01:57:43.730Z,15.98
2022-12-04T02:00:15.649Z,17.67
2022-12-04T02:02:43.955Z,16.42
2022-12-04T02:05:13.390Z,22.85
2022-12-04T02:07:40.774Z,22.98
2022-12-04T02:10:09.019Z,31.02
2022-12-04T02:12:48.619Z,26.95
2022-12-04T02:15:22.042Z,26.75
2022-12-04T02:17:58.124Z,28.33
2022-12-04T02:20:37.531Z,24.08
2022-12-04T02:23:19.526Z,28.92
2022-12-04T02:26:10.839Z,30.70
2022-12-04T02:28:58.954Z,23.02
2022-12-04T02:31:34.203Z,22.92
2022-12-04T02:34:14.642Z,28.63
2022-12-04T02:36:45.285Z,20.02
2022-12-04T02:39:23.393Z,22.92
2022-12-04T02:41:59.379Z,23.58
2022-12-04T02:44:29.771Z,21.73
2022-12-04T02:46:59.477Z,19.27
2022-12-04T02:49:30.805Z,21.55
2022-12-04T02:51:57.846Z,19.92
2022-12-04T02:54:34.687Z,24.38
2022-12-04T02:57:02.679Z,21.48
2022-12-04T02:59:37.259Z,15.82
2022-12-04T03:02:11.240Z,20.08
2022-12-04T03:04:38.717Z,20.52
2022-12-04T03:07:14.488Z,20.30
2022-12-04T03:09:45.262Z,20.83
2022-12-04T03:12:29.422Z,24.65
2022-12-04T03:15:08.266Z,21.52
2022-12-04T03:17:42.313Z,19.40
2022-12-04T03:20:10.509Z,25.50
2022-12-04T03:22:38.316Z,22.42
2022-12-04T03:25:05.935Z,19.90
2022-12-04T03:27:54.190Z,20.30
2022-12-04T03:30:22.281Z,16.70
2022-12-04T03:32:50.752Z,21.98
2022-12-04T03:35:24.507Z,19.02
2022-12-04T03:37:56.967Z,18.70
2022-12-04T03:40:46.367Z,21.63
2022-12-04T03:43:32.515Z,21.20
2022-12-04T03:46:10.375Z,24.30
2022-12-04T03:48:52.091Z,23.55
2022-12-04T03:51:23.090Z,19.95
2022-12-04T03:53:52.963Z,24.52
2022-12-04T03:56:25.152Z,27.52
2022-12-04T03:58:57.872Z,26.08
2022-12-04T04:01:28.358Z,25.80
2022-12-04T04:03:55.793Z,23.25
2022-12-04T04:06:25.234Z,25.33
2022-12-04T04:08:54.165Z,23.02
2022-12-04T04:11:29.492Z,20.70
2022-12-04T04:14:24.581Z,20.25
2022-12-04T04:17:19.407Z,21.27
2022-12-04T04:20:07.051Z,21.10
2022-12-04T04:22:55.975Z,21.75
2022-12-04T04:25:24.563Z,20.85
2022-12-04T04:27:55.458Z,17.98
2022-12-04T04:30:22.632Z,19.23
2022-12-04T04:32:55.777Z,17.35
2022-12-04T04:35:42.051Z,17.30
2022-12-04T04:38:38.189Z,19.30
2022-12-04T04:41:31.175Z,20.58
2022-12-04T04:44:03.393Z,28.00
2022-12-04T04:46:32.782Z,21.85
2022-12-04T04:49:01.722Z,21.95
2022-12-04T04:51:28.977Z,23.15
2022-12-04T04:53:57.097Z,17.65
2022-12-04T04:56:24.293Z,23.65
2022-12-04T04:58:51.232Z,19.77
2022-12-04T05:01:19.721Z,20.02
2022-12-04T05:03:46.699Z,21.77
2022-12-04T05:06:13.857Z,17.42
2022-12-04T05:08:40.928Z,20.48
2022-12-04T05:11:12.004Z,18.13
2022-12-04T05:13:39.026Z,19.65
2022-12-04T05:16:08.365Z,18.45
2022-12-04T05:18:35.461Z,17.60
2022-12-04T05:21:09.237Z,19.80
2022-12-04T05:23:36.225Z,17.25
2022-12-04T05:26:04.672Z,19.95
2022-12-04T05:28:31.950Z,24.90
2022-12-04T05:31:00.113Z,18.58
2022-12-04T05:33:27.254Z,20.65
2022-12-04T05:36:06.403Z,22.63
2022-12-04T05:38:33.641Z,21.60
2022-12-04T05:41:01.274Z,21.40
2022-12-04T05:43:28.280Z,16.35
2022-12-04T05:45:55.311Z,19.77
2022-12-04T05:48:22.308Z,23.58
2022-12-04T05:50:49.287Z,19.95
2022-12-04T05:53:16.392Z,21.67
2022-12-04T05:55:43.286Z,25.70
2022-12-04T05:58:10.275Z,21.77
2022-12-04T06:00:37.212Z,20.52
2022-12-04T06:03:04.228Z,28.73
2022-12-04T06:05:32.827Z,24.23
2022-12-04T06:08:00.036Z,24.15
2022-12-04T06:10:27.042Z,23.27
2022-12-04T06:12:57.839Z,19.25
2022-12-04T06:15:24.988Z,21.83
2022-12-04T06:17:51.956Z,24.33
2022-12-04T06:20:19.078Z,17.15
2022-12-04T06:22:46.388Z,19.75
2022-12-04T06:25:13.393Z,26.75
2022-12-04T06:27:40.362Z,20.20
2022-12-04T06:30:08.184Z,23.20
2022-12-04T06:32:35.182Z,18.77
2022-12-04T06:35:02.326Z,15.45
2022-12-04T06:37:29.311Z,23.17
2022-12-04T06:39:56.515Z,16.30
2022-12-04T06:42:23.758Z,19.80
2022-12-04T06:44:50.853Z,18.90
2022-12-04T06:47:17.885Z,16.13
2022-12-04T06:49:46.245Z,17.10
2022-12-04T06:52:34.964Z,14.27
2022-12-04T06:55:12.539Z,12.55
2022-12-04T06:57:39.564Z,11.57
2022-12-04T07:00:07.236Z,11.25
2022-12-04T07:02:34.237Z,12.57
2022-12-04T07:05:01.311Z,14.40
2022-12-04T07:07:30.505Z,15.23
2022-12-04T07:09:57.878Z,16.13
2022-12-04T07:12:25.085Z,16.27
2022-12-04T07:14:52.124Z,13.35
2022-12-04T07:17:19.121Z,11.95
2022-12-04T07:19:46.257Z,16.05
2022-12-04T07:22:15.410Z,12.05
2022-12-04T07:24:42.474Z,12.35
2022-12-04T07:27:11.982Z,12.95
2022-12-04T07:29:39.100Z,11.68
2022-12-04T07:32:06.105Z,11.57
2022-12-04T07:34:37.559Z,10.10
2022-12-04T07:37:04.517Z,11.65
2022-12-04T07:39:31.582Z,11.93
2022-12-04T07:41:58.546Z,13.80
2022-12-04T07:44:25.589Z,11.95
2022-12-04T07:46:52.553Z,8.73
2022-12-04T07:49:20.736Z,13.73
2022-12-04T07:51:50.206Z,11.90
2022-12-04T07:54:19.454Z,9.60
2022-12-04T07:56:46.458Z,10.05
2022-12-04T07:59:13.556Z,17.05
2022-12-04T08:01:40.884Z,10.20
2022-12-04T08:04:15.355Z,13.40
2022-12-04T08:06:42.640Z,13.35
2022-12-04T08:09:10.418Z,10.40
2022-12-04T08:11:37.818Z,16.02
2022-12-04T08:14:05.344Z,17.77
2022-12-04T08:16:33.438Z,9.80
2022-12-04T08:19:01.346Z,12.38
2022-12-04T08:21:29.346Z,13.93
2022-12-04T08:23:57.386Z,12.15
2022-12-04T08:26:25.298Z,16.40
2022-12-04T08:28:56.529Z,11.05
2022-12-04T08:31:25.237Z,12.43
2022-12-04T08:33:53.672Z,16.20
2022-12-04T08:36:23.630Z,12.93
2022-12-04T08:38:51.157Z,13.48
2022-12-04T08:41:23.933Z,8.57
2022-12-04T08:43:52.847Z,10.95
2022-12-04T08:46:19.834Z,11.23
2022-12-04T08:48:48.854Z,8.70
2022-12-04T08:51:20.641Z,13.80
2022-12-04T08:53:54.435Z,11.32
2022-12-04T08:56:24.237Z,14.27
2022-12-04T08:58:56.210Z,13.25
2022-12-04T09:01:23.407Z,11.85
2022-12-04T09:03:53.327Z,14.43
2022-12-04T09:06:25.343Z,11.32
2022-12-04T09:08:54.692Z,12.60
2022-12-04T09:11:23.319Z,10.70
2022-12-04T09:13:50.668Z,8.77
2022-12-04T09:16:19.390Z,10.82
2022-12-04T09:18:46.618Z,11.93
2022-12-04T09:21:14.940Z,11.43
2022-12-04T09:23:43.612Z,12.57
2022-12-04T09:26:19.722Z,15.05
2022-12-04T09:28:47.160Z,13.50
2022-12-04T09:31:14.314Z,12.85
2022-12-04T09:33:41.515Z,13.18
2022-12-04T09:36:08.639Z,13.55
2022-12-04T09:38:36.052Z,17.15
2022-12-04T09:41:08.561Z,16.13
2022-12-04T09:43:52.766Z,12.90
2022-12-04T09:46:35.828Z,12.23
2022-12-04T09:49:11.756Z,12.90
2022-12-04T09:51:40.853Z,11.00
2022-12-04T09:54:35.426Z,18.30
2022-12-04T09:57:24.610Z,11.18
2022-12-04T09:59:53.021Z,16.05
2022-12-04T10:02:41.152Z,12.20
2022-12-04T10:05:18.012Z,14.13
2022-12-04T10:08:16.230Z,15.63
2022-12-04T10:10:51.110Z,17.83
2022-12-04T10:13:43.655Z,10.38
2022-12-04T10:16:19.259Z,13.40
2022-12-04T10:19:11.071Z,12.00
2022-12-04T10:22:12.911Z,11.35
2022-12-04T10:24:56.816Z,12.80
2022-12-04T10:27:28.959Z,11.88
2022-12-04T10:30:02.590Z,11.93
2022-12-04T10:35:01.144Z,12.25
2022-12-04T10:37:28.171Z,11.38
2022-12-04T10:39:58.696Z,12.38
2022-12-04T10:42:35.915Z,12.48
2022-12-04T10:45:03.002Z,11.30
2022-12-04T10:47:30.071Z,12.82
2022-12-04T10:50:00.066Z,13.40
2022-12-04T10:52:27.121Z,10.63
2022-12-04T10:54:59.191Z,9.68
2022-12-04T10:57:43.524Z,11.10
2022-12-04T11:00:27.691Z,11.07
2022-12-04T11:02:55.762Z,10.50
2022-12-04T11:05:28.324Z,11.57
2022-12-04T11:07:55.612Z,10.20
2022-12-04T11:10:43.970Z,12.18
2022-12-04T11:13:10.820Z,10.93
2022-12-04T11:15:51.927Z,9.60
2022-12-04T11:18:20.877Z,10.20
2022-12-04T11:20:55.158Z,10.52
2022-12-04T11:23:22.327Z,11.35
2022-12-04T11:25:51.334Z,10.52
2022-12-04T11:28:42.150Z,12.35
2022-12-04T11:31:10.568Z,10.88
2022-12-04T11:33:53.076Z,14.98
2022-12-04T11:36:25.274Z,12.70
2022-12-04T11:38:53.097Z,11.10
2022-12-04T11:41:28.176Z,11.00
2022-12-04T11:44:00.029Z,11.98
2022-12-04T11:46:31.857Z,10.80
2022-12-04T11:48:59.356Z,13.77
2022-12-04T11:51:51.731Z,17.70
2022-12-04T11:54:57.619Z,11.07
2022-12-04T11:57:38.788Z,10.50
2022-12-04T12:00:13.782Z,10.48
2022-12-04T12:02:53.989Z,13.20
2022-12-04T12:05:33.513Z,11.55
2022-12-04T12:08:16.623Z,9.88
2022-12-04T12:10:44.989Z,10.67
2022-12-04T12:13:18.347Z,11.60
2022-12-04T12:16:27.223Z,11.93
2022-12-04T12:18:54.219Z,11.88
2022-12-04T12:21:55.173Z,9.52
2022-12-04T12:24:29.386Z,10.38
2022-12-04T12:27:29.972Z,11.30
2022-12-04T12:30:19.819Z,12.02
2022-12-04T12:33:09.946Z,9.27
2022-12-04T12:35:45.917Z,9.82
2022-12-04T12:38:17.565Z,9.80
2022-12-04T12:40:59.971Z,9.90
2022-12-04T12:43:36.888Z,10.07
2022-12-04T12:46:23.165Z,12.60
2022-12-04T12:49:06.901Z,11.70
2022-12-04T12:51:36.981Z,10.25
2022-12-04T12:54:30.800Z,12.35
2022-12-04T12:57:19.985Z,11.38
2022-12-04T12:59:49.400Z,10.77
2022-12-04T13:02:53.995Z,10.63
2022-12-04T13:05:26.146Z,13.10
2022-12-04T13:07:59.191Z,8.25
2022-12-04T13:10:30.579Z,8.60
2022-12-04T13:13:06.402Z,8.50
2022-12-04T13:16:08.559Z,7.88
2022-12-04T13:19:08.897Z,13.10
2022-12-04T13:22:01.157Z,7.85
2022-12-04T13:24:40.068Z,7.20
2022-12-04T13:27:13.351Z,9.98
2022-12-04T13:30:04.334Z,8.18
2022-12-04T13:32:57.842Z,10.07
2022-12-04T13:35:43.577Z,8.88
2022-12-04T13:38:13.523Z,7.70
2022-12-04T13:40:42.464Z,9.55
2022-12-04T13:43:24.608Z,7.85
2022-12-04T13:45:53.173Z,9.75
2022-12-04T13:48:31.320Z,8.70
2022-12-04T13:51:22.627Z,9.10
2022-12-04T13:53:59.675Z,9.43
2022-12-04T13:56:29.074Z,7.68
2022-12-04T13:59:01.240Z,6.88
2022-12-04T14:01:38.759Z,8.10
2022-12-04T14:04:06.274Z,8.88
2022-12-04T14:06:39.670Z,9.95
2022-12-04T14:09:09.527Z,8.07
2022-12-04T14:11:45.208Z,7.95
2022-12-04T14:14:23.087Z,9.70
2022-12-04T14:16:50.137Z,7.72
2022-12-04T14:19:40.686Z,9.05
2022-12-04T14:22:30.837Z,8.85
2022-12-04T14:25:19.600Z,8.43
2022-12-04T14:27:51.871Z,7.25
2022-12-04T14:30:30.142Z,7.95
2022-12-04T14:33:05.915Z,7.57
2022-12-04T14:35:32.930Z,7.97
2022-12-04T14:38:04.539Z,7.70
2022-12-04T14:40:37.594Z,9.80
2022-12-04T14:43:04.687Z,7.72
2022-12-04T14:45:47.282Z,9.18
2022-12-04T14:48:41.817Z,8.13
2022-12-04T14:51:11.796Z,7.50
2022-12-04T14:53:51.298Z,11.27
2022-12-04T14:56:39.098Z,8.52
2022-12-04T14:59:29.788Z,8.25
2022-12-04T15:01:56.989Z,8.38
2022-12-04T15:04:29.618Z,8.57
2022-12-04T15:07:00.162Z,10.73
2022-12-04T15:09:46.251Z,8.02
2022-12-04T15:12:33.854Z,9.15
2022-12-04T15:15:22.111Z,8.13
2022-12-04T15:18:11.526Z,8.73
2022-12-04T15:20:43.460Z,10.45
2022-12-04T15:23:14.349Z,8.98
2022-12-04T15:25:44.642Z,9.35
2022-12-04T15:28:24.350Z,11.10
2022-12-04T15:30:51.374Z,10.35
2022-12-04T15:33:29.681Z,9.98
2022-12-04T15:36:02.955Z,8.88
2022-12-04T15:38:29.976Z,8.40
2022-12-04T15:41:00.631Z,8.45
2022-12-04T15:43:32.282Z,8.70
2022-12-04T15:45:59.475Z,6.53
2022-12-04T15:48:30.521Z,8.95
2022-12-04T15:51:05.234Z,10.23
2022-12-04T15:53:44.778Z,10.43
2022-12-04T15:56:18.067Z,8.73
2022-12-04T15:59:03.274Z,8.02
2022-12-04T16:01:39.068Z,8.85
2022-12-04T16:04:06.063Z,8.18
2022-12-04T16:06:33.775Z,9.02
2022-12-04T16:09:22.219Z,12.95
2022-12-04T16:11:58.214Z,13.18
2022-12-04T16:14:25.279Z,12.93
2022-12-04T16:16:52.923Z,13.32
2022-12-04T16:19:34.261Z,9.70
2022-12-04T16:22:21.085Z,17.80
2022-12-04T16:24:48.188Z,9.18
2022-12-04T16:27:17.543Z,8.65
2022-12-04T16:29:45.602Z,7.97
2022-12-04T16:32:13.616Z,7.35
2022-12-04T16:34:40.681Z,7.28
2022-12-04T16:37:15.153Z,8.68
2022-12-04T16:39:42.201Z,10.10
2022-12-04T16:42:19.254Z,9.70
2022-12-04T16:44:46.309Z,9.35
2022-12-04T16:47:13.620Z,8.40
2022-12-04T16:49:40.890Z,10.35
2022-12-04T16:52:07.990Z,9.07
2022-12-04T16:54:35.032Z,12.30
2022-12-04T16:57:02.026Z,8.13
2022-12-04T16:59:29.628Z,12.02
2022-12-04T17:01:56.626Z,10.05
2022-12-04T17:04:23.808Z,11.63
2022-12-04T17:06:50.966Z,9.27
2022-12-04T17:09:17.974Z,7.53
2022-12-04T17:11:45.217Z,9.00
2022-12-04T17:14:12.286Z,10.38
2022-12-04T17:16:41.966Z,10.27
2022-12-04T17:19:09.898Z,7.70
2022-12-04T17:21:36.925Z,9.10
2022-12-04T17:24:04.136Z,8.35
2022-12-04T17:26:31.146Z,8.93
2022-12-04T17:28:58.094Z,7.97
2022-12-04T17:31:25.806Z,11.90
2022-12-04T17:33:52.932Z,8.80
2022-12-04T17:36:25.224Z,10.45
2022-12-04T17:38:56.157Z,9.82
2022-12-04T17:41:23.216Z,7.97
2022-12-04T17:43:50.203Z,6.43
2022-12-04T17:46:20.661Z,14.48
2022-12-04T17:48:48.140Z,13.57
2022-12-04T17:51:20.142Z,9.38
2022-12-04T17:53:47.289Z,15.85
2022-12-04T17:56:17.526Z,10.65
2022-12-04T17:58:44.728Z,13.10
2022-12-04T18:01:19.625Z,10.27
2022-12-04T18:03:53.741Z,9.60
2022-12-04T18:06:21.826Z,15.93
2022-12-04T18:08:50.403Z,16.13
2022-12-04T18:11:21.728Z,15.68
2022-12-04T18:13:59.566Z,19.13
2022-12-04T18:16:27.024Z,18.38
2022-12-04T18:18:55.422Z,44.38
2022-12-04T18:21:22.411Z,45.60
2022-12-04T18:23:49.603Z,21.02
2022-12-04T18:26:23.295Z,12.65
2022-12-04T18:31:18.245Z,18.02
2022-12-04T18:33:45.501Z,22.10
2022-12-04T18:36:14.822Z,22.15
2022-12-04T18:38:41.947Z,25.83
2022-12-04T18:41:10.189Z,20.30
2022-12-04T18:43:38.938Z,19.27
2022-12-04T18:46:08.238Z,22.42
2022-12-04T18:48:35.747Z,20.45
2022-12-04T18:51:02.934Z,28.25
2022-12-04T18:53:29.893Z,28.33
2022-12-04T18:55:56.774Z,29.45
2022-12-04T18:58:24.049Z,28.25
2022-12-04T19:00:52.006Z,27.48
2022-12-04T19:03:19.011Z,23.67
2022-12-04T19:05:52.017Z,29.27
2022-12-04T19:08:19.187Z,27.77
2022-12-04T19:10:46.171Z,31.88
2022-12-04T19:13:13.230Z,28.02
2022-12-04T19:15:43.867Z,31.52
2022-12-04T19:18:11.392Z,25.42
2022-12-04T19:20:47.968Z,25.77
2022-12-04T19:23:17.181Z,23.70
2022-12-04T19:25:44.154Z,26.95
2022-12-04T19:28:11.108Z,28.23
2022-12-04T19:30:38.037Z,37.60
2022-12-04T19:33:05.026Z,42.90
2022-12-04T19:35:32.032Z,37.25
2022-12-04T19:37:58.992Z,36.90
2022-12-04T19:40:25.890Z,44.08
2022-12-04T19:42:53.682Z,45.20
2022-12-04T19:45:22.831Z,41.65
2022-12-04T19:47:49.938Z,40.33
2022-12-04T19:50:16.893Z,44.00
2022-12-04T19:52:43.805Z,59.47
2022-12-04T19:55:10.803Z,66.65
2022-12-04T19:57:37.739Z,71.55
2022-12-04T20:00:05.950Z,66.97
2022-12-04T20:02:38.872Z,68.82
2022-12-04T20:05:06.151Z,66.63
2022-12-04T20:07:33.048Z,49.60
2022-12-04T20:10:00.294Z,51.45
2022-12-04T20:12:27.397Z,42.60
2022-12-04T20:14:54.407Z,32.75
2022-12-04T20:17:21.406Z,30.73
2022-12-04T20:19:48.310Z,34.97
2022-12-04T20:22:15.285Z,31.17
2022-12-04T20:24:43.169Z,26.83
2022-12-04T20:27:10.142Z,27.90
2022-12-04T20:29:37.082Z,27.65
2022-12-04T20:32:04.041Z,24.15
2022-12-04T20:34:30.917Z,27.55
2022-12-04T20:36:59.142Z,25.88
2022-12-04T20:39:26.076Z,26.98
2022-12-04T20:41:52.979Z,24.05
2022-12-04T20:44:20.307Z,21.95
2022-12-04T20:46:47.514Z,22.48
2022-12-04T20:49:21.301Z,24.55
2022-12-04T20:51:49.444Z,26.25
2022-12-04T20:54:18.365Z,23.40
2022-12-04T20:56:45.600Z,20.15
2022-12-04T20:59:13.518Z,24.20
2022-12-04T21:01:40.859Z,22.50
2022-12-04T21:04:07.897Z,25.02
2022-12-04T21:06:36.627Z,60.28
2022-12-04T21:09:08.304Z,40.85
2022-12-04T21:11:42.739Z,50.78
2022-12-04T21:14:36.575Z,35.72
2022-12-04T21:17:03.904Z,31.10
2022-12-04T21:19:30.927Z,29.48
2022-12-04T21:21:58.001Z,30.17
2022-12-04T21:24:26.731Z,24.58
2022-12-04T21:26:54.566Z,22.48
2022-12-04T21:29:21.783Z,24.45
2022-12-04T21:31:48.784Z,20.27
2022-12-04T21:34:17.054Z,22.13
2022-12-04T21:36:44.062Z,21.70
2022-12-04T21:39:11.082Z,21.80
2022-12-04T21:41:56.484Z,22.10
2022-12-04T21:44:23.586Z,21.15
2022-12-04T21:46:50.690Z,21.85
2022-12-04T21:49:18.160Z,27.52
2022-12-04T21:52:00.541Z,25.67
2022-12-04T21:54:28.268Z,20.98
2022-12-04T21:56:55.620Z,25.02
2022-12-04T21:59:22.916Z,24.25
2022-12-04T22:01:49.893Z,20.95
2022-12-04T22:04:16.978Z,25.80
2022-12-04T22:06:43.965Z,23.30
2022-12-04T22:09:11.809Z,26.42
2022-12-04T22:11:41.562Z,28.02
2022-12-04T22:14:09.190Z,23.02
2022-12-04T22:16:41.541Z,24.63
2022-12-04T22:19:09.392Z,23.20
2022-12-04T22:21:36.455Z,20.42
2022-12-04T22:24:03.845Z,24.17
2022-12-04T22:26:30.979Z,29.13
2022-12-04T22:28:58.062Z,20.73
2022-12-04T22:31:26.226Z,22.77
2022-12-04T22:33:54.074Z,20.15
2022-12-04T22:36:23.291Z,21.40
2022-12-04T22:41:37.520Z,18.73
2022-12-04T22:44:04.725Z,27.60
2022-12-04T22:46:31.910Z,20.67
2022-12-04T22:48:59.681Z,18.67
2022-12-04T22:51:27.389Z,19.30
2022-12-04T22:53:56.019Z,17.20
2022-12-04T22:56:28.511Z,18.45
2022-12-04T22:58:55.914Z,21.63
2022-12-04T23:01:27.087Z,19.15
2022-12-04T23:03:54.088Z,24.58
2022-12-04T23:06:26.093Z,17.92
2022-12-04T23:08:57.409Z,16.02
2022-12-04T23:11:24.646Z,15.05
2022-12-04T23:13:52.587Z,15.68
2022-12-04T23:16:20.850Z,17.45
2022-12-04T23:18:48.265Z,15.88
2022-12-04T23:21:15.677Z,14.70
2022-12-04T23:23:45.353Z,14.70
2022-12-04T23:26:14.635Z,16.23
2022-12-04T23:28:41.627Z,13.95
2022-12-04T23:31:08.840Z,22.45
2022-12-04T23:33:35.872Z,14.65
2022-12-04T23:36:03.204Z,15.20
2022-12-04T23:38:30.328Z,13.90
2022-12-04T23:41:18.435Z,15.65
2022-12-04T23:43:45.451Z,13.40
2022-12-04T23:46:13.224Z,18.48
2022-12-04T23:48:41.294Z,13.50
2022-12-04T23:51:08.697Z,12.60
2022-12-04T23:53:35.837Z,15.98
2022-12-04T23:56:07.168Z,17.55
2022-12-04T23:58:34.406Z,16.90
